Time;durP1;ratioP1;P1;durP2;ratioP2;P2;SDS_P1;SDS_P2;PMS_P1;PMS_P2;Temp;Humidity;BMP_temperature;BMP_pressure;BME280_temperature;BME280_humidity;BME280_pressure;Samples;Min_cycle;Max_cycle;Signal;HPM_P1;HPM_P2
2023/10/07 00:02:53;;;;;;;7.85;3.80;;;19.90;57.50;;;;;;5928243;29;20144;-74
2023/10/07 00:06:00;;;;;;;8.73;4.03;;;19.90;57.70;;;;;;5959377;29;20113;-77
2023/10/07 00:09:01;;;;;;;8.15;3.97;;;19.80;57.90;;;;;;5959215;29;20050;-74
2023/10/07 00:12:02;;;;;;;7.60;3.95;;;19.80;58.20;;;;;;5971382;29;20150;-75
2023/10/07 00:15:04;;;;;;;5.68;3.33;;;19.80;58.50;;;;;;5988284;29;20133;-76
2023/10/07 00:18:14;;;;;;;19.10;4.18;;;19.70;58.60;;;;;;6003088;29;20041;-77
2023/10/07 00:21:26;;;;;;;9.45;3.78;;;19.80;58.70;;;;;;5987159;29;20135;-79
2023/10/07 00:24:32;;;;;;;13.65;4.45;;;19.70;58.80;;;;;;5965353;29;20041;-75
2023/10/07 00:27:38;;;;;;;12.85;4.38;;;19.80;58.90;;;;;;5982152;29;20092;-77
2023/10/07 00:30:39;;;;;;;13.00;4.10;;;19.80;59.10;;;;;;5965195;29;20103;-78
2023/10/07 00:34:15;;;;;;;13.73;4.18;;;19.70;59.10;;;;;;5982217;29;20042;-77
2023/10/07 00:37:07;;;;;;;9.93;4.15;;;19.60;59.20;;;;;;5964936;29;20479;-76
2023/10/07 00:40:14;;;;;;;8.18;4.45;;;19.60;59.20;;;;;;5965018;29;20074;-74
2023/10/07 00:43:31;;;;;;;11.45;5.10;;;19.60;59.50;;;;;;5964978;29;20046;-74
2023/10/07 00:46:34;;;;;;;10.77;4.60;;;19.60;59.50;;;;;;5965451;29;20042;-74
2023/10/07 00:49:41;;;;;;;17.88;5.82;;;19.50;59.50;;;;;;5948789;29;20050;-75
2023/10/07 00:52:56;;;;;;;11.18;4.95;;;19.50;59.60;;;;;;5958201;29;20087;-75
2023/10/07 00:55:58;;;;;;;10.07;4.60;;;19.50;59.40;;;;;;5957742;29;20035;-75
2023/10/07 00:59:07;;;;;;;12.00;4.80;;;19.50;59.40;;;;;;5957639;29;20038;-76
2023/10/07 01:02:15;;;;;;;8.52;4.15;;;19.50;59.70;;;;;;5957550;29;20031;-75
2023/10/07 01:05:22;;;;;;;12.35;4.63;;;19.50;59.90;;;;;;5958990;29;20038;-76
2023/10/07 01:08:28;;;;;;;7.60;3.83;;;19.40;60.00;;;;;;5957924;29;20068;-77
2023/10/07 01:11:30;;;;;;;7.63;3.83;;;19.40;60.20;;;;;;5976092;29;20350;-76
2023/10/07 01:14:35;;;;;;;9.27;4.13;;;19.40;60.30;;;;;;6000637;29;20034;-76
2023/10/07 01:17:40;;;;;;;12.63;5.00;;;19.30;60.40;;;;;;5999464;29;20035;-75
2023/10/07 01:23:54;;;;;;;8.98;3.70;;;19.30;60.70;;;;;;5981993;29;20034;-75
2023/10/07 01:26:55;;;;;;;11.27;3.55;;;19.20;60.80;;;;;;5965230;29;20444;-76
2023/10/07 01:30:30;;;;;;;7.47;4.00;;;19.10;61.00;;;;;;5980081;29;20449;-77
2023/10/07 01:33:34;;;;;;;11.02;4.03;;;19.10;61.10;;;;;;5960910;29;20061;-76
2023/10/07 01:36:35;;;;;;;7.35;3.50;;;19.00;61.20;;;;;;5981890;29;20038;-75
2023/10/07 01:39:42;;;;;;;7.55;3.60;;;19.00;61.30;;;;;;5980948;29;20473;-75
2023/10/07 01:42:44;;;;;;;12.80;4.07;;;19.00;61.40;;;;;;5981242;29;20688;-75
2023/10/07 01:45:47;;;;;;;7.72;3.60;;;18.90;61.60;;;;;;5964232;29;20057;-76
2023/10/07 01:48:55;;;;;;;6.93;3.78;;;18.90;61.70;;;;;;5979291;29;20130;-76
2023/10/07 01:51:56;;;;;;;9.93;4.35;;;18.80;61.90;;;;;;5964569;29;20599;-75
2023/10/07 01:54:58;;;;;;;9.05;4.63;;;18.80;62.10;;;;;;5964628;29;20035;-76
2023/10/07 01:57:59;;;;;;;14.30;4.38;;;18.80;62.30;;;;;;5964512;29;20038;-74
2023/10/07 02:01:00;;;;;;;8.15;3.95;;;18.80;62.50;;;;;;5964100;29;20046;-75
2023/10/07 02:04:11;;;;;;;8.50;4.53;;;18.70;62.70;;;;;;5963995;29;20129;-76
2023/10/07 02:07:12;;;;;;;10.40;4.00;;;18.70;62.70;;;;;;5979509;29;20062;-76
2023/10/07 02:10:22;;;;;;;13.35;4.60;;;18.70;62.80;;;;;;5981885;29;20041;-77
2023/10/07 02:13:27;;;;;;;5.78;3.78;;;18.70;62.80;;;;;;5972015;29;20039;-75
2023/10/07 02:16:28;;;;;;;11.93;4.47;;;18.70;62.80;;;;;;5967468;29;20039;-75
2023/10/07 02:19:31;;;;;;;10.10;4.22;;;18.70;62.90;;;;;;5968024;29;20107;-73
2023/10/07 02:22:32;;;;;;;7.88;4.07;;;18.70;63.70;;;;;;5967978;29;20042;-75
2023/10/07 02:25:36;;;;;;;9.07;3.63;;;18.60;63.00;;;;;;5968344;29;20042;-76
2023/10/07 02:28:40;;;;;;;8.48;4.18;;;18.60;63.20;;;;;;5967864;29;20149;-75
2023/10/07 02:31:43;;;;;;;8.38;4.25;;;18.50;63.30;;;;;;5967798;29;20038;-75
2023/10/07 02:34:51;;;;;;;10.35;4.25;;;18.50;63.50;;;;;;5967782;29;20129;-74
2023/10/07 02:37:53;;;;;;;10.85;4.65;;;18.50;63.60;;;;;;5984329;29;20099;-76
2023/10/07 02:40:58;;;;;;;11.10;3.92;;;18.40;63.50;;;;;;5984303;29;20034;-75
2023/10/07 02:44:10;;;;;;;10.13;4.85;;;18.40;63.50;;;;;;5967921;29;20066;-75
2023/10/07 02:47:11;;;;;;;13.13;4.65;;;18.40;63.50;;;;;;5952295;29;20141;-74
2023/10/07 02:50:13;;;;;;;10.63;4.43;;;18.40;63.60;;;;;;5982938;29;20044;-78
2023/10/07 02:53:15;;;;;;;14.60;5.07;;;18.40;63.60;;;;;;6005596;29;20121;-75
2023/10/07 02:56:18;;;;;;;8.32;4.07;;;18.30;63.50;;;;;;5989859;29;20052;-75
2023/10/07 02:59:25;;;;;;;13.82;4.43;;;18.30;63.60;;;;;;6006488;29;20030;-75
2023/10/07 03:02:48;;;;;;;10.23;4.70;;;18.20;63.70;;;;;;5983982;29;20031;-76
2023/10/07 03:06:00;;;;;;;9.90;5.03;;;18.20;63.60;;;;;;5982233;29;20034;-75
2023/10/07 03:09:09;;;;;;;9.70;4.15;;;18.20;63.70;;;;;;5979745;29;20045;-75
2023/10/07 03:12:13;;;;;;;8.63;4.10;;;18.10;63.90;;;;;;5999655;29;20026;-75
2023/10/07 03:15:21;;;;;;;7.75;4.20;;;18.10;64.00;;;;;;6025819;29;20105;-75
2023/10/07 03:18:22;;;;;;;8.02;3.83;;;18.00;64.00;;;;;;5992477;29;20090;-75
2023/10/07 03:21:35;;;;;;;11.10;4.70;;;18.00;64.10;;;;;;5989509;29;20250;-76
2023/10/07 03:24:42;;;;;;;7.85;3.85;;;18.00;64.00;;;;;;5989589;29;20076;-75
2023/10/07 03:27:49;;;;;;;10.52;3.78;;;18.00;63.90;;;;;;5988095;29;20142;-75
2023/10/07 03:30:55;;;;;;;12.38;4.43;;;18.00;63.90;;;;;;6004288;29;20046;-75
2023/10/07 03:33:59;;;;;;;8.95;4.60;;;18.00;63.90;;;;;;6004579;29;20037;-75
2023/10/07 03:40:25;;;;;;;10.82;4.63;;;18.00;64.00;;;;;;5967223;29;20045;-75
2023/10/07 03:43:26;;;;;;;10.40;3.92;;;18.00;64.00;;;;;;5967502;29;20038;-76
2023/10/07 03:46:27;;;;;;;9.98;4.30;;;18.00;63.90;;;;;;5983327;29;20049;-74
2023/10/07 03:49:33;;;;;;;11.45;4.53;;;17.90;63.80;;;;;;5946525;29;20107;-76
2023/10/07 03:52:37;;;;;;;7.75;3.55;;;17.90;64.00;;;;;;5960363;29;20038;-76
2023/10/07 03:55:43;;;;;;;12.00;4.07;;;17.80;64.00;;;;;;5958488;29;20461;-74
2023/10/07 03:58:44;;;;;;;7.43;3.55;;;17.70;64.20;;;;;;5959856;29;20055;-76
2023/10/07 04:01:45;;;;;;;8.98;4.13;;;17.70;64.30;;;;;;5955362;29;20388;-76
2023/10/07 04:04:45;;;;;;;10.52;4.80;;;17.60;64.50;;;;;;5981087;29;20042;-75
2023/10/07 04:07:46;;;;;;;9.10;4.13;;;17.60;64.70;;;;;;5966815;29;20039;-76
2023/10/07 04:10:54;;;;;;;8.18;4.32;;;17.50;64.90;;;;;;5970896;29;20510;-75
2023/10/07 04:13:56;;;;;;;10.18;4.00;;;17.50;65.10;;;;;;6004372;29;20042;-75
2023/10/07 04:17:06;;;;;;;8.48;4.20;;;17.50;65.30;;;;;;6005181;29;20137;-76
2023/10/07 04:20:22;;;;;;;8.23;3.97;;;17.50;65.30;;;;;;5987970;29;20045;-75
2023/10/07 04:23:25;;;;;;;8.40;3.78;;;17.50;65.30;;;;;;6003569;29;20041;-75
2023/10/07 04:26:26;;;;;;;7.60;4.05;;;17.50;65.20;;;;;;6003256;29;20038;-76
2023/10/07 04:29:28;;;;;;;8.63;4.18;;;17.50;65.00;;;;;;5988006;29;20344;-76
2023/10/07 04:32:29;;;;;;;8.60;4.13;;;17.50;64.90;;;;;;5989310;29;20048;-77
2023/10/07 04:35:33;;;;;;;9.88;4.65;;;17.50;64.90;;;;;;5982212;29;20030;-76
2023/10/07 04:41:57;;;;;;;12.90;3.78;;;17.40;65.00;;;;;;5965794;29;20045;-76
2023/10/07 04:45:17;;;;;;;7.03;3.90;;;17.30;65.00;;;;;;5965773;29;20129;-74
2023/10/07 04:48:24;;;;;;;8.63;4.25;;;17.40;65.20;;;;;;5980239;29;20042;-76
2023/10/07 04:54:35;;;;;;;10.57;5.03;;;17.30;65.30;;;;;;5942941;29;20035;-77
2023/10/07 04:57:56;;;;;;;8.20;4.10;;;17.30;65.30;;;;;;5958086;29;20125;-76
2023/10/07 05:01:06;;;;;;;11.23;4.85;;;17.30;65.40;;;;;;5964560;29;20046;-76
2023/10/07 05:04:15;;;;;;;10.80;4.72;;;17.20;65.40;;;;;;5966408;29;20053;-76
2023/10/07 05:07:24;;;;;;;6.25;3.85;;;17.20;65.40;;;;;;5981611;29;20035;-77
2023/10/07 05:10:29;;;;;;;7.03;3.70;;;17.20;65.50;;;;;;5984091;29;20068;-74
2023/10/07 05:13:32;;;;;;;10.90;4.60;;;17.20;65.50;;;;;;5994658;29;20105;-74
2023/10/07 05:16:34;;;;;;;10.40;4.35;;;17.20;65.50;;;;;;6003698;29;20030;-75
2023/10/07 05:19:37;;;;;;;11.20;4.35;;;17.10;65.50;;;;;;5987127;29;20519;-74
2023/10/07 05:22:37;;;;;;;8.20;4.70;;;17.10;65.50;;;;;;6003969;29;20041;-75
2023/10/07 05:25:43;;;;;;;9.90;4.68;;;17.10;65.60;;;;;;6002525;29;20411;-76
2023/10/07 05:28:47;;;;;;;10.38;4.07;;;17.10;65.70;;;;;;5971746;29;20114;-78
2023/10/07 05:31:48;;;;;;;21.58;4.57;;;17.10;65.90;;;;;;5964881;29;20054;-75
2023/10/07 05:34:49;;;;;;;8.00;4.30;;;17.10;66.00;;;;;;5964791;29;20091;-74
2023/10/07 05:37:50;;;;;;;8.65;4.60;;;17.00;65.90;;;;;;5981256;29;20458;-75
2023/10/07 05:41:00;;;;;;;9.77;3.95;;;17.10;66.70;;;;;;5981075;29;20114;-76
2023/10/07 05:44:00;;;;;;;8.27;3.78;;;17.10;65.90;;;;;;5981866;29;20038;-75
2023/10/07 05:47:05;;;;;;;15.52;4.50;;;17.10;65.90;;;;;;5964632;29;20372;-76
2023/10/07 05:50:08;;;;;;;9.15;4.10;;;17.10;65.80;;;;;;5981140;29;20410;-76
2023/10/07 05:53:09;;;;;;;18.23;4.55;;;17.10;65.80;;;;;;6010614;29;20034;-76
2023/10/07 05:56:10;;;;;;;10.90;4.82;;;17.10;65.70;;;;;;6009250;29;20037;-74
2023/10/07 05:59:11;;;;;;;10.23;4.25;;;17.10;65.70;;;;;;5987526;29;20415;-76
2023/10/07 06:02:15;;;;;;;12.15;5.28;;;17.10;65.70;;;;;;5968813;29;20152;-76
2023/10/07 06:05:19;;;;;;;9.13;4.60;;;17.10;65.80;;;;;;5983387;29;20058;-76
2023/10/07 06:08:20;;;;;;;9.98;4.53;;;17.10;65.70;;;;;;5985171;29;20043;-74
2023/10/07 06:11:23;;;;;;;8.63;4.28;;;17.10;65.60;;;;;;5968381;29;20096;-74
2023/10/07 06:14:24;;;;;;;13.10;4.85;;;17.10;65.60;;;;;;5968576;29;20053;-75
2023/10/07 06:17:26;;;;;;;13.80;5.22;;;17.10;65.60;;;;;;5968738;29;20814;-75
2023/10/07 06:20:27;;;;;;;10.15;4.78;;;17.00;65.70;;;;;;5973791;29;20115;-75
2023/10/07 06:23:29;;;;;;;12.13;4.47;;;17.00;65.80;;;;;;5969704;29;20082;-74
2023/10/07 06:26:31;;;;;;;11.63;5.38;;;17.00;65.80;;;;;;5984490;29;20034;-77
2023/10/07 06:29:33;;;;;;;9.48;5.03;;;17.00;65.80;;;;;;5952646;29;20061;-77
2023/10/07 06:32:45;;;;;;;11.05;5.45;;;17.00;65.90;;;;;;5967964;29;20654;-76
2023/10/07 06:35:46;;;;;;;12.93;4.88;;;16.90;65.90;;;;;;5985053;29;20434;-73
2023/10/07 06:38:52;;;;;;;15.95;5.32;;;16.90;65.90;;;;;;5983959;29;20126;-76
2023/10/07 06:41:56;;;;;;;11.38;5.00;;;17.00;66.10;;;;;;5985758;29;20065;-76
2023/10/07 06:45:08;;;;;;;8.48;4.75;;;17.00;66.10;;;;;;5969132;29;20364;-76
2023/10/07 06:48:11;;;;;;;8.98;4.30;;;17.00;66.00;;;;;;5968721;29;20452;-77
2023/10/07 06:51:13;;;;;;;9.90;4.35;;;16.90;65.90;;;;;;5991060;29;20037;-75
2023/10/07 06:54:14;;;;;;;10.32;4.50;;;17.00;66.00;;;;;;5993870;29;20377;-75
2023/10/07 06:57:17;;;;;;;10.20;4.72;;;17.00;66.00;;;;;;5984733;29;20111;-76
2023/10/07 07:00:25;;;;;;;10.57;4.40;;;17.00;65.90;;;;;;5966466;29;20039;-77
2023/10/07 07:03:27;;;;;;;16.65;6.03;;;17.00;65.90;;;;;;5982190;29;20045;-76
2023/10/07 07:06:34;;;;;;;10.95;4.07;;;17.00;65.80;;;;;;5967370;29;20111;-76
2023/10/07 07:09:42;;;;;;;9.90;5.07;;;17.10;65.50;;;;;;5985423;29;20050;-74
2023/10/07 07:12:44;;;;;;;11.35;4.30;;;17.00;65.50;;;;;;5967570;29;20092;-78
2023/10/07 07:15:57;;;;;;;12.20;4.75;;;17.00;65.70;;;;;;5968534;29;20060;-76
2023/10/07 07:18:59;;;;;;;10.10;4.78;;;17.10;65.70;;;;;;5983539;29;20449;-76
2023/10/07 07:22:00;;;;;;;18.05;5.32;;;17.10;65.70;;;;;;5983555;29;20046;-75
2023/10/07 07:25:07;;;;;;;12.55;5.68;;;17.20;65.50;;;;;;5967124;29;20402;-75
2023/10/07 07:28:09;;;;;;;9.32;4.40;;;17.20;65.20;;;;;;5983712;29;20502;-76
2023/10/07 07:31:18;;;;;;;12.10;4.40;;;17.20;65.20;;;;;;5968866;29;20555;-76
2023/10/07 07:34:26;;;;;;;12.30;4.88;;;17.30;65.00;;;;;;5952571;29;20053;-81
2023/10/07 07:37:27;;;;;;;9.68;4.35;;;17.40;65.10;;;;;;5966587;29;20065;-81
2023/10/07 07:40:38;;;;;;;10.15;4.05;;;17.60;64.70;;;;;;5966935;29;20084;-80
2023/10/07 07:43:39;;;;;;;10.60;4.38;;;17.60;64.40;;;;;;5952165;29;20042;-81
2023/10/07 07:46:52;;;;;;;12.77;4.95;;;17.80;64.20;;;;;;5975233;29;20135;-79
2023/10/07 07:49:53;;;;;;;9.15;4.38;;;18.00;64.20;;;;;;5972510;29;20046;-82
2023/10/07 07:53:06;;;;;;;8.65;3.72;;;18.20;63.50;;;;;;5966137;29;20041;-79
2023/10/07 07:56:13;;;;;;;11.90;4.72;;;18.40;62.80;;;;;;5983351;29;20043;-81
2023/10/07 07:59:14;;;;;;;9.90;4.03;;;18.50;62.30;;;;;;5950940;29;20113;-80
2023/10/07 08:02:16;;;;;;;8.77;4.93;;;18.70;61.60;;;;;;5966272;29;20727;-79
2023/10/07 08:05:17;;;;;;;10.40;4.32;;;18.80;61.20;;;;;;5966277;29;20526;-79
2023/10/07 08:08:29;;;;;;;9.13;4.25;;;18.90;60.80;;;;;;5981623;29;20074;-79
2023/10/07 08:11:36;;;;;;;9.82;4.88;;;19.00;60.20;;;;;;5969238;29;20157;-78
2023/10/07 08:14:44;;;;;;;6.82;3.70;;;19.10;59.90;;;;;;5983915;29;20062;-79
2023/10/07 08:17:45;;;;;;;10.55;4.57;;;19.30;59.80;;;;;;5977805;29;20042;-81
2023/10/07 08:21:13;;;;;;;9.05;4.13;;;19.50;59.10;;;;;;5967083;29;20046;-80
2023/10/07 08:24:14;;;;;;;9.35;4.10;;;19.60;58.80;;;;;;5966328;29;20070;-81
2023/10/07 08:30:38;;;;;;;9.73;4.00;;;20.00;58.20;;;;;;5982733;29;20034;-79
2023/10/07 08:33:39;;;;;;;8.05;4.18;;;20.00;57.80;;;;;;5991352;29;20026;-80
2023/10/07 08:36:43;;;;;;;8.95;3.95;;;20.20;57.80;;;;;;5982840;29;20041;-80
2023/10/07 08:39:44;;;;;;;11.82;4.43;;;20.30;57.10;;;;;;5950678;29;20045;-79
2023/10/07 08:42:45;;;;;;;11.00;4.90;;;20.40;57.00;;;;;;5950705;29;20049;-79
2023/10/07 08:45:48;;;;;;;17.35;5.95;;;20.50;57.00;;;;;;5982559;29;20076;-80
2023/10/07 08:48:57;;;;;;;9.75;4.07;;;20.70;56.80;;;;;;5982548;29;20042;-79
2023/10/07 08:51:59;;;;;;;13.15;4.57;;;20.90;56.30;;;;;;5980954;29;20106;-80
2023/10/07 08:55:03;;;;;;;13.93;4.07;;;21.10;55.70;;;;;;5983319;29;20034;-80
2023/10/07 08:58:05;;;;;;;10.45;4.00;;;21.10;55.30;;;;;;5986010;29;20049;-80
2023/10/07 09:01:07;;;;;;;9.93;4.25;;;21.20;54.90;;;;;;5980616;29;20449;-80
2023/10/07 09:04:09;;;;;;;10.93;4.90;;;21.20;54.90;;;;;;5965802;29;20030;-80
2023/10/07 09:07:11;;;;;;;8.88;4.55;;;21.30;54.60;;;;;;5965870;29;20478;-82
2023/10/07 09:10:17;;;;;;;16.65;4.20;;;21.40;54.40;;;;;;5982442;29;20038;-80
2023/10/07 09:13:27;;;;;;;12.60;4.78;;;21.40;54.10;;;;;;6004190;29;20137;-80
2023/10/07 09:16:32;;;;;;;11.50;4.55;;;21.50;54.00;;;;;;6004633;29;20030;-80
2023/10/07 09:19:34;;;;;;;7.30;3.80;;;21.50;53.60;;;;;;5987517;29;20030;-80
2023/10/07 09:22:35;;;;;;;15.02;5.90;;;21.60;53.40;;;;;;5987960;29;20045;-81
2023/10/07 09:25:36;;;;;;;9.88;4.35;;;21.60;53.30;;;;;;5988251;29;20471;-77
2023/10/07 09:28:38;;;;;;;6.40;3.85;;;21.70;53.20;;;;;;5987733;29;20057;-78
2023/10/07 09:31:56;;;;;;;10.88;4.30;;;21.70;52.40;;;;;;5987225;29;20034;-69
2023/10/07 09:34:57;;;;;;;6.55;3.33;;;21.80;52.30;;;;;;6002178;29;20034;-70
2023/10/07 09:37:59;;;;;;;5.57;2.80;;;21.70;51.90;;;;;;6002533;29;20360;-68
2023/10/07 09:41:12;;;;;;;16.13;3.83;;;21.80;51.80;;;;;;6002457;29;20152;-70
2023/10/07 09:44:28;;;;;;;10.30;4.28;;;21.80;51.80;;;;;;5965293;29;20046;-69
2023/10/07 09:47:29;;;;;;;11.30;5.25;;;21.80;51.30;;;;;;5963394;29;20344;-70
2023/10/07 09:50:33;;;;;;;9.93;4.22;;;21.90;51.00;;;;;;5980741;29;20038;-71
2023/10/07 09:53:55;;;;;;;7.50;3.88;;;21.90;50.50;;;;;;6002380;29;20045;-70
2023/10/07 09:57:22;;;;;;;14.23;4.03;;;21.90;50.80;;;;;;5986352;29;20054;-70
2023/10/07 10:00:42;;;;;;;9.40;4.10;;;22.10;50.60;;;;;;5992772;29;20086;-69
2023/10/07 10:04:24;;;;;;;10.45;4.35;;;22.10;50.40;;;;;;5978079;29;20046;-70
2023/10/07 10:07:39;;;;;;;8.38;3.53;;;22.20;50.50;;;;;;5979733;29;20096;-70
2023/10/07 10:10:46;;;;;;;9.95;3.55;;;22.40;50.30;;;;;;5982482;29;20041;-70
2023/10/07 10:16:57;;;;;;;15.75;3.13;;;22.70;49.60;;;;;;6002196;29;20026;-70
2023/10/07 10:20:12;;;;;;;18.47;3.07;;;23.00;48.80;;;;;;6000381;29;20064;-72
2023/10/07 10:23:20;;;;;;;6.72;2.97;;;23.40;47.70;;;;;;6001737;29;20049;-70
2023/10/07 10:26:22;;;;;;;;;;;23.70;46.70;;;;;;6000974;29;20065;-71
2023/10/07 10:29:25;;;;;;;7.57;3.60;;;24.00;45.90;;;;;;6001856;29;20114;-72
2023/10/07 10:32:30;;;;;;;11.25;4.30;;;24.30;45.20;;;;;;6002340;29;20124;-72
2023/10/07 10:35:33;;;;;;;8.57;2.97;;;24.50;43.30;;;;;;6002988;29;20037;-71
2023/10/07 10:38:37;;;;;;;17.10;5.57;;;24.70;43.00;;;;;;5999955;29;20038;-70
2023/10/07 10:41:39;;;;;;;9.10;3.33;;;24.90;42.20;;;;;;5966963;29;20087;-71
2023/10/07 10:44:42;;;;;;;6.65;3.17;;;25.00;42.00;;;;;;5983616;29;20038;-71
2023/10/07 10:47:51;;;;;;;4.57;2.78;;;25.10;42.40;;;;;;5966812;29;20043;-70
2023/10/07 10:50:55;;;;;;;9.43;3.75;;;25.30;42.80;;;;;;5982714;29;20066;-70
2023/10/07 10:53:57;;;;;;;7.60;3.75;;;25.50;42.70;;;;;;5981707;29;20030;-72
2023/10/07 10:56:58;;;;;;;12.68;4.65;;;25.80;42.60;;;;;;5983298;29;20041;-71
2023/10/07 11:00:06;;;;;;;14.10;4.28;;;26.00;41.90;;;;;;5983802;29;20129;-71
2023/10/07 11:03:07;;;;;;;8.30;3.65;;;26.10;41.70;;;;;;5983642;29;20127;-70
2023/10/07 11:06:11;;;;;;;6.20;3.20;;;26.30;40.70;;;;;;5982714;29;20600;-71
2023/10/07 11:09:17;;;;;;;9.20;3.03;;;26.40;40.60;;;;;;5982587;29;20080;-71
2023/10/07 11:12:19;;;;;;;8.85;3.03;;;26.60;40.20;;;;;;5999217;29;20091;-70
2023/10/07 11:15:24;;;;;;;5.40;2.78;;;27.00;39.30;;;;;;6004165;29;20040;-72
2023/10/07 11:18:30;;;;;;;7.60;2.88;;;27.40;38.40;;;;;;5988798;29;20583;-73
2023/10/07 11:21:31;;;;;;;8.57;3.13;;;27.90;37.60;;;;;;6005537;29;20042;-71
2023/10/07 11:24:35;;;;;;;8.65;3.70;;;28.30;36.30;;;;;;6006430;29;20081;-72
2023/10/07 11:27:37;;;;;;;11.10;3.78;;;28.60;35.00;;;;;;6005039;29;20053;-71
2023/10/07 11:30:47;;;;;;;4.65;2.53;;;28.90;35.10;;;;;;6005047;29;20038;-70
2023/10/07 11:33:51;;;;;;;11.00;5.20;;;29.30;34.40;;;;;;6005259;29;20041;-70
2023/10/07 11:36:52;;;;;;;6.35;3.33;;;29.70;33.80;;;;;;5966894;29;20039;-71
2023/10/07 11:39:53;;;;;;;6.60;2.72;;;30.00;32.30;;;;;;5982312;29;20083;-70
2023/10/07 11:42:56;;;;;;;6.38;2.90;;;30.20;32.50;;;;;;5982415;29;20118;-73
2023/10/07 11:45:59;;;;;;;7.60;3.05;;;30.70;32.40;;;;;;5980818;29;20042;-71
2023/10/07 11:48:59;;;;;;;4.88;2.80;;;31.20;31.50;;;;;;5987833;29;20045;-72
2023/10/07 11:52:04;;;;;;;5.90;3.17;;;31.80;31.00;;;;;;6004955;29;20132;-72
2023/10/07 11:55:07;;;;;;;4.50;2.90;;;32.30;30.30;;;;;;6004791;29;20116;-71
2023/10/07 11:58:09;;;;;;;7.55;3.58;;;32.60;29.80;;;;;;6004505;29;20109;-71
2023/10/07 12:01:11;;;;;;;7.72;3.75;;;33.10;29.70;;;;;;5990240;29;20041;-70
2023/10/07 12:04:12;;;;;;;16.85;4.03;;;33.60;29.40;;;;;;5965048;29;20070;-73
2023/10/07 12:07:16;;;;;;;7.80;3.35;;;33.90;28.90;;;;;;5965234;29;20052;-74
2023/10/07 12:10:17;;;;;;;10.75;3.70;;;34.50;28.50;;;;;;5983294;29;20053;-71
2023/10/07 12:13:19;;;;;;;4.90;2.67;;;34.80;27.90;;;;;;6003103;29;20108;-70
2023/10/07 12:16:21;;;;;;;4.75;2.67;;;35.10;27.30;;;;;;5988406;29;20087;-72
2023/10/07 12:19:24;;;;;;;10.48;3.00;;;35.30;26.70;;;;;;6003692;29;20041;-71
2023/10/07 12:22:25;;;;;;;6.10;3.10;;;35.20;26.30;;;;;;6004260;29;20037;-71
2023/10/07 12:25:26;;;;;;;5.45;3.08;;;35.20;26.00;;;;;;6004376;29;20037;-69
2023/10/07 12:28:27;;;;;;;13.00;5.40;;;35.30;25.90;;;;;;6002418;29;20463;-72
2023/10/07 12:31:28;;;;;;;24.95;11.00;;;35.50;25.70;;;;;;5977670;29;20092;-70
2023/10/07 12:34:30;;;;;;;9.45;4.03;;;35.40;25.60;;;;;;5981142;29;20034;-70
2023/10/07 12:37:31;;;;;;;6.50;3.25;;;34.90;25.90;;;;;;5981230;29;20057;-70
2023/10/07 12:40:32;;;;;;;8.55;2.92;;;34.50;26.10;;;;;;5981684;29;20039;-69
2023/10/07 12:43:34;;;;;;;7.07;2.80;;;34.30;26.30;;;;;;5966593;29;20057;-70
2023/10/07 12:46:39;;;;;;;13.48;3.58;;;34.00;26.70;;;;;;5981812;29;20034;-70
2023/10/07 12:49:45;;;;;;;5.10;2.97;;;34.10;26.80;;;;;;5976405;29;20041;-71
2023/10/07 12:53:04;;;;;;;8.38;3.25;;;34.00;26.60;;;;;;6003320;29;20502;-72
2023/10/07 12:56:13;;;;;;;7.50;3.17;;;33.20;27.20;;;;;;6003166;29;20057;-71
2023/10/07 12:59:23;;;;;;;8.77;3.53;;;32.30;28.20;;;;;;5982387;29;20112;-69
2023/10/07 13:02:28;;;;;;;6.50;3.10;;;31.60;28.90;;;;;;5941274;29;20035;-69
2023/10/07 13:05:32;;;;;;;7.05;2.95;;;31.00;29.40;;;;;;5956206;29;20115;-69
2023/10/07 13:08:33;;;;;;;7.38;3.33;;;30.50;29.70;;;;;;5958068;29;20350;-71
2023/10/07 13:11:35;;;;;;;6.18;2.90;;;30.10;30.00;;;;;;5957402;29;20096;-72
2023/10/07 13:14:36;;;;;;;6.60;2.95;;;29.80;30.40;;;;;;5956601;29;20053;-70
2023/10/07 13:17:37;;;;;;;6.97;3.47;;;29.50;30.80;;;;;;5956293;29;20038;-69
2023/10/07 13:20:38;;;;;;;8.73;3.50;;;29.20;31.30;;;;;;5957753;29;20046;-72
2023/10/07 13:23:40;;;;;;;6.55;2.90;;;28.90;31.70;;;;;;5958080;29;20126;-69
2023/10/07 13:26:41;;;;;;;5.30;2.80;;;28.70;32.20;;;;;;5959124;29;20436;-70
2023/10/07 13:29:42;;;;;;;6.72;3.53;;;28.50;32.50;;;;;;5978144;29;20034;-71
2023/10/07 13:32:44;;;;;;;8.57;3.10;;;28.40;33.00;;;;;;5978379;29;20468;-71
2023/10/07 13:35:45;;;;;;;8.52;2.75;;;28.20;33.40;;;;;;5963192;29;20155;-70
2023/10/07 13:38:46;;;;;;;5.95;3.38;;;28.10;33.80;;;;;;5963101;29;20045;-70
2023/10/07 13:41:48;;;;;;;5.70;2.90;;;27.90;34.20;;;;;;5979797;29;20781;-71
2023/10/07 13:44:49;;;;;;;6.13;3.08;;;27.80;34.60;;;;;;5979887;29;20046;-69
2023/10/07 13:47:55;;;;;;;6.10;3.03;;;27.80;34.80;;;;;;5947953;29;20042;-69
2023/10/07 13:51:00;;;;;;;6.03;3.28;;;27.80;35.00;;;;;;5984230;29;20044;-69
2023/10/07 13:57:22;;;;;;;15.27;3.95;;;27.60;35.10;;;;;;5979623;29;20082;-73
2023/10/07 14:00:36;;;;;;;6.68;3.38;;;27.50;35.20;;;;;;5970999;29;20042;-71
2023/10/07 14:03:39;;;;;;;10.35;3.70;;;27.50;35.30;;;;;;5956455;29;20535;-70
2023/10/07 14:06:41;;;;;;;8.40;3.80;;;27.40;35.50;;;;;;5988085;29;20038;-69
2023/10/07 14:09:42;;;;;;;5.60;3.42;;;27.40;35.50;;;;;;5971921;29;20365;-69
2023/10/07 14:12:42;;;;;;;7.72;3.22;;;27.60;35.70;;;;;;5990025;29;20031;-72
2023/10/07 14:15:48;;;;;;;10.63;3.38;;;27.40;35.60;;;;;;5991318;29;20114;-69
2023/10/07 14:18:49;;;;;;;6.68;3.35;;;27.40;35.70;;;;;;5994695;29;20022;-69
2023/10/07 14:21:50;;;;;;;6.43;2.90;;;27.40;35.80;;;;;;5974241;29;20488;-70
2023/10/07 14:24:53;;;;;;;7.00;3.05;;;27.30;35.80;;;;;;5994977;29;20030;-70
2023/10/07 14:27:54;;;;;;;7.03;3.03;;;27.30;35.80;;;;;;5993704;29;20124;-69
2023/10/07 14:30:55;;;;;;;9.15;3.15;;;27.30;35.90;;;;;;5983109;29;20053;-69
2023/10/07 14:33:56;;;;;;;8.30;2.97;;;27.30;36.00;;;;;;5982704;29;20046;-72
2023/10/07 14:36:59;;;;;;;8.10;3.22;;;27.30;36.00;;;;;;5983093;29;20702;-71
2023/10/07 14:40:00;;;;;;;5.95;3.03;;;27.30;36.10;;;;;;5966262;29;20168;-70
2023/10/07 14:43:01;;;;;;;6.13;2.90;;;27.30;36.20;;;;;;5982825;29;20038;-70
2023/10/07 14:46:04;;;;;;;6.68;3.00;;;27.20;36.20;;;;;;5966043;29;20042;-71
2023/10/07 14:49:06;;;;;;;10.63;4.00;;;27.20;36.20;;;;;;5990338;29;20045;-68
2023/10/07 14:52:07;;;;;;;11.57;3.85;;;27.20;36.30;;;;;;5983786;29;20399;-69
2023/10/07 14:55:10;;;;;;;6.10;3.58;;;27.20;36.40;;;;;;5982713;29;20056;-70
2023/10/07 14:58:15;;;;;;;3.95;2.47;;;27.20;36.50;;;;;;5965742;29;20042;-70
2023/10/07 15:01:21;;;;;;;9.88;3.25;;;27.20;36.50;;;;;;5966565;29;20061;-69
2023/10/07 15:04:22;;;;;;;8.60;3.35;;;27.20;36.50;;;;;;5982492;29;20491;-71
2023/10/07 15:07:24;;;;;;;7.43;3.80;;;27.20;36.60;;;;;;5981020;29;20106;-71
2023/10/07 15:10:28;;;;;;;6.40;3.03;;;27.20;36.70;;;;;;5983721;29;20758;-69
2023/10/07 15:13:29;;;;;;;9.65;2.95;;;27.20;36.70;;;;;;6005281;29;20103;-68
2023/10/07 15:16:30;;;;;;;6.18;3.13;;;27.20;36.80;;;;;;6003531;29;20116;-70
2023/10/07 15:19:31;;;;;;;7.88;3.15;;;27.20;36.80;;;;;;5983840;29;20030;-71
2023/10/07 15:22:35;;;;;;;6.90;3.10;;;27.10;36.90;;;;;;5980623;29;20148;-69
2023/10/07 15:25:45;;;;;;;7.85;2.50;;;27.10;37.10;;;;;;5980371;29;20050;-70
2023/10/07 15:28:47;;;;;;;5.18;2.65;;;27.10;37.30;;;;;;5965774;29;20027;-71
2023/10/07 15:31:48;;;;;;;7.38;3.53;;;27.10;37.30;;;;;;5965645;29;20142;-70
2023/10/07 15:34:49;;;;;;;5.47;2.95;;;27.00;37.40;;;;;;5981356;29;20038;-71
2023/10/07 15:37:51;;;;;;;7.88;3.00;;;27.00;37.50;;;;;;5981960;29;20031;-68
2023/10/07 15:40:55;;;;;;;12.10;3.53;;;27.00;37.60;;;;;;5981429;29;20051;-70
2023/10/07 15:43:56;;;;;;;6.82;2.78;;;26.90;37.60;;;;;;5980188;29;20069;-69
2023/10/07 15:46:58;;;;;;;8.68;3.67;;;27.00;37.80;;;;;;5981385;29;20066;-71
2023/10/07 15:49:58;;;;;;;8.63;3.72;;;26.90;37.80;;;;;;5948844;29;20046;-71
2023/10/07 15:52:59;;;;;;;4.47;2.47;;;26.90;37.90;;;;;;5958409;29;20034;-71
2023/10/07 15:56:06;;;;;;;9.00;3.25;;;26.90;38.00;;;;;;5957968;29;20095;-70
2023/10/07 15:59:08;;;;;;;5.95;2.92;;;26.90;38.10;;;;;;5958290;29;20122;-69
2023/10/07 16:02:09;;;;;;;11.80;3.00;;;26.80;38.30;;;;;;5979817;29;20045;-70
2023/10/07 16:05:11;;;;;;;8.02;2.97;;;26.80;38.40;;;;;;5980932;29;20046;-71
2023/10/07 16:08:12;;;;;;;9.73;3.50;;;26.80;38.50;;;;;;5980020;29;20285;-68
2023/10/07 16:11:18;;;;;;;6.20;2.90;;;26.70;38.60;;;;;;5979014;29;20038;-70
2023/10/07 16:14:20;;;;;;;6.03;3.13;;;26.70;38.70;;;;;;5981272;29;20125;-69
2023/10/07 16:17:22;;;;;;;12.55;3.20;;;26.60;38.80;;;;;;5980656;29;20151;-70
2023/10/07 16:20:24;;;;;;;7.07;3.03;;;26.60;39.00;;;;;;5981262;29;20046;-70